Terminal Aerodrome Forecast
Issued by NWS

Current Version | Previous Version | Graphics & Text | Print | Product List | Glossary On
Versions: 1 2 3 4 5 6 7 8 9 10 11 12 13 14 15 16
866
FTUS41 KILN 231127
TAFLUK
TAF
KLUK 231127Z 2312/2412 06005KT P6SM SCT150
     FM231600 11009KT P6SM SCT100
     FM231900 14008KT P6SM BKN080
     FM240500 17006KT P6SM BKN070 WS020/21045KT
     FM241100 20010KT P6SM BKN022 WS020/21045KT=

USA.gov is the U.S. government's official web portal to all federal, state and local government web resources and services.